Latest Weather Observations for Maitland Airport

IDN60801

Issued at 9:32 pm EST Wednesday 19 September 2018 (issued every 10 minutes, with the page automatically refreshed every 10 minutes)

About weather observations | Map of weather stations | Latest weather observations for NSW | Other Formats
Station Details ID: 061428 Name: MAITLAND AIRPORT AWS Lat: -32.70 Lon: 151.49 Height: 27.5 m
Data from the previous 72 hours. | See also: Recent months at Maitland Airport
Date/Time
EST
Temp
°C
App
Temp
°C
Dew
Point
°C
Rel
Hum
%
Delta-T
°C
Wind Press
QNH
hPa
Press
MSL
hPa
Rain since
9am
mm
Dir  Spd
km/h
Gust
km/h
Spd
kts
Gust
kts
19/09:30pm 17.1 13.5 12.0 72 2.8 SE 22 32 12 17 1013.2 1013.2 0.0
19/09:00pm 18.1 13.6 10.2 60 4.2 SSE 24 39 13 21 1012.4 1012.3 0.0
19/08:59pm 18.2 13.7 10.1 59 4.3 SSE 24 39 13 21 1012.4 1012.3 0.0
19/08:30pm 19.5 16.4 3.6 35 7.5 W 9 13 5 7 1011.0 1010.9 0.0
19/08:00pm 20.2 17.7 4.7 36 7.5 W 7 7 4 4 1010.2 1010.1 0.0
19/07:30pm 21.7 18.7 3.9 31 8.6 W 9 13 5 7 1009.7 1009.6 0.0
19/07:00pm 22.1 18.3 1.7 26 9.5 NW 11 17 6 9 1009.3 1009.2 0.0
19/06:30pm 23.7 19.5 -0.6 20 10.9 W 11 17 6 9 1008.4 1008.3 0.0
19/06:00pm 24.9 19.2 -1.0 18 11.7 WNW 19 30 10 16 1008.1 1008.0 0.0
19/05:30pm 25.9 21.0 -0.2 18 12.1 WNW 15 22 8 12 1008.0 1007.9 0.0
19/05:00pm 27.3 19.9 -0.7 16 13.0 WNW 28 39 15 21 1007.5 1007.4 0.0
19/04:30pm 27.5 22.0 0.3 17 12.8 WNW 19 28 10 15 1007.1 1007.0 0.0
19/04:00pm 27.8 21.8 1.3 18 12.8 WNW 22 32 12 17 1007.0 1006.9 0.0
19/03:30pm 28.0 23.3 3.0 20 12.4 WNW 17 26 9 14 1007.0 1006.9 0.0
19/03:00pm 28.1 22.1 0.8 17 13.1 NW 22 33 12 18 1006.9 1006.8 0.0
19/02:30pm 28.0 21.3 1.5 18 12.8 NW 26 39 14 21 1007.2 1007.1 0.0
19/02:00pm 28.2 22.9 3.1 20 12.5 WNW 20 35 11 19 1007.5 1007.4 0.0
19/01:30pm 26.7 21.6 3.2 22 11.6 NW 19 28 10 15 1008.0 1007.9 0.0
19/01:00pm 27.2 21.8 4.3 23 11.6 NW 22 32 12 17 1008.1 1008.0 0.0
19/12:30pm 27.1 21.4 6.5 27 10.8 WNW 26 35 14 19 1008.5 1008.4 0.0
19/12:02pm 27.2 20.5 5.5 25 11.2 WNW 30 50 16 27 1008.8 1008.7 0.0
19/12:00pm 27.5 20.8 5.7 25 11.3 WNW 30 41 16 22 1008.8 1008.7 0.0
19/11:30am 28.3 22.9 6.4 25 11.6 WNW 24 41 13 22 1008.5 1008.4 0.0
19/11:00am 27.6 21.3 7.5 28 10.8 NW 30 41 16 22 1008.9 1008.8 0.0
19/10:49am 27.2 20.7 6.6 27 10.8 NW 30 48 16 26 1008.9 1008.8 0.0
19/10:30am 27.0 23.5 8.9 32 9.9 NW 17 32 9 17 1009.2 1009.1 0.0
19/10:00am 23.8 21.7 8.2 37 8.3 NNW 9 15 5 8 1009.7 1009.6 0.0
19/09:30am 23.0 21.6 9.4 42 7.3 NW 7 15 4 8 1010.1 1010.0 0.0
19/09:00am 21.3 19.0 7.5 41 7.1 WSW 9 15 5 8 1010.7 1010.6 0.0
19/08:30am 19.2 19.2 12.5 65 3.8 SSW 4 7 2 4 1010.7 1010.6 0.0
19/08:00am 16.2 16.8 12.0 76 2.3 CALM 0 0 0 0 1010.7 1010.6 0.0
19/07:30am 13.6 13.5 12.0 90 0.9 NNE 4 7 2 4 1010.7 1010.6 0.0
19/07:00am 10.8 9.9 10.6 99 0.1 SE 6 7 3 4 1010.7 1010.6 0.0
19/06:30am 8.8 8.5 8.7 99 0.0 CALM 0 0 0 0 1010.5 1010.4 0.0
19/06:00am 7.1 6.0 7.0 99 0.0 SW 2 11 1 6 1010.6 1010.5 0.0
19/05:30am 8.4 8.0 8.3 99 0.0 CALM 0 0 0 0 1010.6 1010.5 0.0
19/05:00am 7.5 6.9 7.4 99 0.0 CALM 0 0 0 0 1010.6 1010.5 0.0
19/04:30am 7.4 6.8 7.3 99 0.0 CALM 0 7 0 4 1010.4 1010.3 0.0
19/04:00am 8.0 7.5 7.9 99 0.0 CALM 0 0 0 0 1010.4 1010.3 0.0
19/03:30am 8.9 8.6 8.8 99 0.0 CALM 0 0 0 0 1010.4 1010.3 0.0
19/03:00am 9.4 9.3 9.3 99 0.0 CALM 0 0 0 0 1010.5 1010.4 0.0
19/02:30am 10.1 10.2 10.0 99 0.1 CALM 0 0 0 0 1010.5 1010.4 0.0
19/02:00am 9.7 9.5 8.9 95 0.4 CALM 0 4 0 2 1010.9 1010.8 0.0
19/01:30am 10.7 8.9 9.6 93 0.6 SW 9 11 5 6 1011.3 1011.2 0.0
19/01:00am 9.8 7.9 8.9 94 0.4 SW 9 9 5 5 1011.6 1011.5 0.0
19/12:30am 11.2 9.6 10.1 93 0.6 SW 9 11 5 6 1012.1 1012.0 0.0
19/12:00am 11.4 10.1 10.0 91 0.7 SW 7 9 4 5 1012.5 1012.4 0.0
 
Date/Time
EST
Temp
°C
App
Temp
°C
Dew
Point
°C
Rel
Hum
%
Delta-T
°C
Wind Press
QNH
hPa
Press
MSL
hPa
Rain since
9am
mm
Dir  Spd
km/h
Gust
km/h
Spd
kts
Gust
kts
18/11:30pm 12.1 11.0 9.8 86 1.2 SW 6 9 3 5 1012.8 1012.7 0.0
18/11:00pm 13.0 11.0 10.2 83 1.4 SW 11 11 6 6 1013.2 1013.2 0.0
18/10:30pm 14.3 12.8 10.5 78 2.0 SW 9 15 5 8 1013.2 1013.2 0.0
18/10:00pm 14.1 12.2 10.5 79 1.9 SSW 11 15 6 8 1013.4 1013.4 0.0
18/09:30pm 14.8 13.1 10.0 73 2.5 NNE 9 11 5 6 1013.6 1013.6 0.0
18/09:00pm 15.7 15.0 10.2 70 2.9 NNE 4 7 2 4 1013.7 1013.7 0.0
18/08:30pm 18.3 16.3 10.2 59 4.3 NNE 11 17 6 9 1013.7 1013.7 0.0
18/08:00pm 18.1 16.2 10.5 61 4.1 NNE 11 15 6 8 1013.8 1013.8 0.0
18/07:30pm 18.1 15.9 10.7 62 4.0 NE 13 17 7 9 1013.7 1013.7 0.0
18/07:00pm 19.0 17.4 10.3 57 4.7 NE 9 15 5 8 1013.7 1013.7 0.0
18/06:30pm 19.4 16.6 10.1 55 5.0 NE 15 24 8 13 1013.5 1013.5 0.0
18/06:00pm 21.2 18.7 9.8 48 6.1 E 13 20 7 11 1013.4 1013.4 0.0
18/05:30pm 23.9 21.3 3.2 26 10.0 NW 6 11 3 6 1013.1 1013.1 0.0
18/05:00pm 25.4 21.4 2.8 23 11.0 NW 13 20 7 11 1012.9 1012.9 0.0
18/04:30pm 26.0 21.2 2.7 22 11.4 WNW 17 24 9 13 1012.8 1012.7 0.0
18/04:00pm 26.3 21.0 2.9 22 11.5 WNW 20 33 11 18 1012.8 1012.7 0.0
18/03:30pm 26.5 21.9 3.7 23 11.4 NW 17 26 9 14 1013.0 1013.0 0.0
18/03:00pm 26.2 19.2 2.2 21 11.6 WNW 28 35 15 19 1013.3 1013.3 0.0
18/02:30pm 26.1 19.8 4.0 24 11.0 WNW 26 39 14 21 1013.7 1013.7 0.0
18/02:00pm 26.3 20.6 4.7 25 10.9 WNW 24 32 13 17 1014.1 1014.1 0.0
18/01:30pm 26.2 21.5 5.2 26 10.7 NW 19 35 10 19 1014.6 1014.6 0.0
18/01:00pm 25.0 20.2 4.7 27 10.2 WNW 19 28 10 15 1015.3 1015.3 0.0
18/12:30pm 23.5 21.1 5.4 31 9.1 N 7 17 4 9 1016.1 1016.1 0.0
18/12:00pm 22.7 18.9 5.6 33 8.6 WNW 15 26 8 14 1017.2 1017.2 0.0
18/11:30am 21.9 18.1 7.7 40 7.4 NW 17 28 9 15 1018.0 1018.0 0.0
18/11:00am 21.2 17.5 7.8 42 6.9 WNW 17 26 9 14 1018.6 1018.6 0.0
18/10:30am 19.6 16.4 8.3 48 5.9 NW 15 20 8 11 1019.4 1019.4 0.0
18/10:00am 17.7 15.0 8.8 56 4.6 WNW 13 19 7 10 1020.0 1020.0 0.0
18/09:30am 15.7 13.0 9.1 65 3.4 WNW 13 19 7 10 1020.4 1020.4 0.0
18/09:00am 14.8 12.4 10.0 73 2.5 WNW 13 20 7 11 1020.8 1020.8 0.0
18/08:30am 12.6 10.2 10.0 84 1.3 NW 13 17 7 9 1020.9 1020.9 0.0
18/08:00am 10.6 8.8 9.5 93 0.5 WNW 9 13 5 7 1021.1 1021.1 0.0
18/07:30am 8.7 5.9 8.6 99 0.0 NW 13 17 7 9 1021.1 1021.1 0.0
18/07:00am 7.5 5.2 7.4 99 0.0 SSE 9 11 5 6 1020.9 1020.9 0.0
18/06:30am 5.3 4.2 5.2 99 0.0 CALM 0 0 0 0 1020.6 1020.6 0.0
18/06:00am 5.3 3.8 5.2 99 0.0 SSE 2 6 1 3 1020.4 1020.4 0.0
18/05:30am 5.3 2.5 5.2 99 0.0 S 9 11 5 6 1020.2 1020.2 0.0
18/05:00am 4.3 3.0 4.2 99 0.0 CALM 0 0 0 0 1020.0 1020.0 0.0
18/04:54am 4.8 3.6 4.7 99 0.0 CALM 0 0 0 0 1020.0 1020.0 0.0
18/04:35am 4.8 3.6 4.7 99 0.0 CALM 0 0 0 0 1020.0 1020.0 0.0
18/04:32am 4.7 3.5 4.6 99 0.0 CALM 0 0 0 0 1020.0 1020.0 0.0
18/04:30am 4.8 3.6 4.7 99 0.0 CALM 0 0 0 0 1020.0 1020.0 0.0
18/04:15am 5.0 3.9 4.9 99 0.0 CALM 0 0 0 0 1019.8 1019.8 0.0
18/04:00am 5.1 4.0 5.0 99 0.0 CALM 0 0 0 0 1019.8 1019.8 0.0
18/03:30am 5.4 4.3 5.3 99 0.0 CALM 0 0 0 0 1019.9 1019.9 0.0
18/03:00am 4.9 3.7 4.8 99 0.0 CALM 0 0 0 0 1020.0 1020.0 0.0
18/02:30am 5.8 4.8 5.7 99 0.0 CALM 0 0 0 0 1020.1 1020.1 0.0
18/02:00am 6.7 5.9 6.6 99 0.0 CALM 0 6 0 3 1020.3 1020.3 0.0
18/01:30am 7.8 5.2 7.7 99 0.0 S 11 11 6 6 1020.7 1020.7 0.0
18/01:00am 8.1 5.6 8.0 99 0.0 E 11 13 6 7 1021.0 1021.0 0.0
18/12:30am 8.1 5.9 7.7 97 0.2 E 9 11 5 6 1021.2 1021.2 0.0
18/12:00am 8.6 6.7 7.7 94 0.4 E 7 9 4 5 1021.3 1021.3 0.0
 
Date/Time
EST
Temp
°C
App
Temp
°C
Dew
Point
°C
Rel
Hum
%
Delta-T
°C
Wind Press
QNH
hPa
Press
MSL
hPa
Rain since
9am
mm
Dir  Spd
km/h
Gust
km/h
Spd
kts
Gust
kts
17/11:30pm 9.0 7.3 8.4 96 0.3 E 7 7 4 4 1021.4 1021.4 0.0
17/11:00pm 8.5 7.3 8.1 97 0.2 E 4 7 2 4 1021.7 1021.7 0.0
17/10:30pm 8.8 7.2 8.2 96 0.3 E 6 7 3 4 1022.0 1022.0 0.0
17/10:00pm 9.4 8.3 8.3 93 0.5 E 4 6 2 3 1022.3 1022.3 0.0
17/09:30pm 9.9 7.8 8.3 90 0.8 E 9 11 5 6 1022.4 1022.4 0.0
17/09:00pm 11.5 9.5 8.5 82 1.5 E 9 13 5 7 1022.4 1022.4 0.0
17/08:30pm 12.1 9.7 8.8 80 1.6 E 11 15 6 8 1022.4 1022.4 0.0
17/08:00pm 12.8 9.7 8.9 77 2.0 E 15 19 8 10 1022.3 1022.3 0.0
17/07:30pm 13.1 10.0 8.8 75 2.2 E 15 19 8 10 1022.3 1022.3 0.0
17/07:00pm 13.5 10.7 8.4 71 2.5 E 13 20 7 11 1022.3 1022.3 0.0
17/06:30pm 14.1 10.1 8.3 68 2.9 E 19 24 10 13 1021.9 1021.9 0.0
17/06:00pm 14.8 10.8 8.1 64 3.3 ESE 19 24 10 13 1021.7 1021.7 0.0
17/05:30pm 15.6 11.4 8.1 61 3.8 ESE 20 28 11 15 1021.3 1021.3 0.0
17/05:00pm 16.2 11.2 7.9 58 4.2 ESE 24 32 13 17 1021.2 1021.2 0.0
17/04:30pm 17.3 13.0 7.9 54 4.8 E 20 26 11 14 1021.0 1021.0 0.0
17/04:00pm 17.8 13.4 7.2 50 5.3 ESE 20 28 11 15 1021.0 1021.0 0.0
17/03:30pm 18.4 13.9 6.9 47 5.8 ESE 20 28 11 15 1021.0 1021.0 0.0
17/03:00pm 19.1 14.9 5.9 42 6.5 ESE 17 28 9 15 1021.0 1021.0 0.0
17/02:30pm 18.9 14.5 5.0 40 6.7 ESE 17 26 9 14 1021.2 1021.2 0.0
17/02:00pm 17.9 14.3 4.8 42 6.2 ENE 13 22 7 12 1021.7 1021.7 0.0
17/01:30pm 19.2 15.2 4.9 39 6.9 E 15 30 8 16 1021.9 1021.9 0.0
17/01:00pm 18.9 14.8 4.3 38 6.9 NE 15 20 8 11 1022.4 1022.4 0.0
17/12:30pm 18.2 14.4 4.0 39 6.7 NE 13 19 7 10 1022.7 1022.7 0.0
17/12:00pm 18.3 14.5 3.8 38 6.8 NE 13 20 7 11 1023.4 1023.4 0.0
17/11:30am 18.2 14.4 4.0 39 6.7 ENE 13 20 7 11 1024.0 1024.0 0.0
17/11:00am 16.1 12.3 3.9 44 5.6 ENE 13 20 7 11 1024.5 1024.5 0.0
17/10:30am 17.0 14.3 5.6 47 5.5 NE 9 19 5 10 1024.7 1024.7 0.0
17/10:00am 15.5 13.1 5.4 51 4.8 WSW 7 13 4 7 1025.1 1025.1 0.0
17/09:30am 14.5 12.2 5.6 55 4.2 NW 7 11 4 6 1025.3 1025.3 0.0
17/09:00am 13.4 11.1 5.6 59 3.6 NW 7 11 4 6 1025.2 1025.2 0.0
17/08:30am 11.7 9.2 6.4 70 2.5 NW 9 15 5 8 1025.3 1025.3 0.0
17/08:00am 9.7 6.4 6.2 79 1.6 WNW 13 17 7 9 1025.2 1025.2 0.0
17/07:30am 7.4 4.3 5.4 87 0.9 WNW 11 15 6 8 1025.1 1025.1 0.0
17/07:00am 6.0 3.8 5.1 94 0.4 WNW 6 13 3 7 1024.8 1024.8 0.0
17/06:30am 3.8 1.3 3.7 99 0.0 WNW 6 9 3 5 1024.5 1024.5 0.0
17/06:00am 3.3 0.7 3.2 99 0.0 WNW 6 9 3 5 1024.3 1024.3 0.0
17/05:30am 3.2 1.7 2.9 98 0.1 CALM 0 0 0 0 1024.0 1024.0 0.0
17/05:00am 4.1 1.4 3.5 96 0.2 WNW 7 13 4 7 1023.6 1023.6 0.0
17/04:30am 4.3 2.5 3.6 95 0.3 WNW 2 9 1 5 1023.4 1023.4 0.0
17/04:00am 4.6 2.1 3.7 94 0.4 WNW 6 7 3 4 1023.0 1023.0 0.0
17/03:30am 5.5 3.0 3.8 89 0.7 WNW 6 11 3 6 1022.9 1022.9 0.0
17/03:00am 5.7 2.7 4.0 89 0.7 WNW 9 13 5 7 1022.7 1022.7 0.0
17/02:30am 6.3 3.5 5.1 92 0.5 NNW 9 15 5 8 1022.9 1022.9 0.0
17/02:00am 6.1 3.8 4.6 90 0.6 S 6 9 3 5 1023.2 1023.2 0.0
17/01:30am 5.2 2.6 4.3 94 0.4 S 7 9 4 5 1023.5 1023.5 0.0
17/01:00am 4.5 3.1 3.8 95 0.3 CALM 0 0 0 0 1023.4 1023.4 0.0
17/12:30am 4.8 3.5 4.1 95 0.3 CALM 0 0 0 0 1023.4 1023.4 0.0
17/12:00am 4.7 3.3 3.4 91 0.5 CALM 0 0 0 0 1023.4 1023.4 0.0
 
Date/Time
EST
Temp
°C
App
Temp
°C
Dew
Point
°C
Rel
Hum
%
Delta-T
°C
Wind Press
QNH
hPa
Press
MSL
hPa
Rain since
9am
mm
Dir  Spd
km/h
Gust
km/h
Spd
kts
Gust
kts
16/11:30pm 4.9 2.8 4.0 94 0.4 ENE 4 6 2 3 1023.4 1023.4 0.0
16/11:00pm 4.8 2.1 3.8 93 0.4 ESE 7 9 4 5 1023.4 1023.4 0.0
16/10:30pm 4.9 3.5 3.7 92 0.5 CALM 0 0 0 0 1023.3 1023.3 0.0
16/10:00pm 6.0 4.3 4.0 87 0.8 ESE 2 6 1 3 1023.1 1023.1 0.0

Other Formats:

Comma delimited format used in spreadsheet applications
http://www.bom.gov.au/fwo/IDN60801/IDN60801.94650.axf

JavaScript Object Notation format (JSON) in row-major order
http://www.bom.gov.au/fwo/IDN60801/IDN60801.94650.json